createdAt,value
2018-09-04T00:00:46.264Z,93.39
2018-09-04T00:03:15.029Z,93.23
2018-09-04T00:05:43.749Z,92.77
2018-09-04T00:08:12.765Z,93.21
2018-09-04T00:10:41.818Z,92.84
2018-09-04T00:13:10.774Z,92.42
2018-09-04T00:15:39.942Z,92.48
2018-09-04T00:18:08.700Z,92.37
2018-09-04T00:20:37.791Z,92.22
2018-09-04T00:23:06.919Z,92.25
2018-09-04T00:25:36.758Z,92.06
2018-09-04T00:28:05.591Z,92.45
2018-09-04T00:30:34.511Z,92.40
2018-09-04T00:33:03.662Z,92.44
2018-09-04T00:35:32.489Z,92.44
2018-09-04T00:38:01.184Z,92.41
2018-09-04T00:40:30.203Z,92.29
2018-09-04T00:42:58.920Z,92.58
2018-09-04T00:45:27.995Z,92.65
2018-09-04T00:47:57.226Z,92.40
2018-09-04T00:50:25.946Z,92.58
2018-09-04T00:52:55.093Z,92.31
2018-09-04T00:55:23.846Z,92.54
2018-09-04T00:57:52.597Z,92.59
2018-09-04T01:00:25.068Z,92.79
2018-09-04T01:02:54.987Z,92.75
2018-09-04T01:05:23.699Z,92.86
2018-09-04T01:07:52.777Z,92.62
2018-09-04T01:10:21.838Z,92.79
2018-09-04T01:12:51.330Z,92.20
2018-09-04T01:15:20.440Z,92.08
2018-09-04T01:17:49.692Z,92.54
2018-09-04T01:20:18.443Z,92.85
2018-09-04T01:22:47.751Z,92.45
2018-09-04T01:25:16.873Z,92.84
2018-09-04T01:27:45.967Z,92.78
2018-09-04T01:30:15.263Z,92.86
2018-09-04T01:32:44.248Z,93.11
2018-09-04T01:35:13.268Z,93.05
2018-09-04T01:37:42.477Z,93.38
2018-09-04T01:40:11.166Z,93.49
2018-09-04T01:42:39.871Z,93.44
2018-09-04T01:45:08.715Z,93.74
2018-09-04T01:47:43.943Z,94.00
2018-09-04T01:50:13.233Z,93.80
2018-09-04T01:52:42.319Z,94.44
2018-09-04T01:55:11.094Z,93.87
2018-09-04T01:57:39.815Z,94.21
2018-09-04T02:00:10.082Z,94.54
2018-09-04T02:02:38.845Z,94.60
2018-09-04T02:05:08.318Z,94.61
2018-09-04T02:07:37.394Z,94.46
2018-09-04T02:10:06.327Z,94.62
2018-09-04T02:12:35.446Z,94.62
2018-09-04T02:15:04.223Z,94.45
2018-09-04T02:17:33.341Z,94.73
2018-09-04T02:20:02.877Z,94.94
2018-09-04T02:22:31.629Z,94.52
2018-09-04T02:25:00.397Z,95.20
2018-09-04T02:27:29.394Z,95.03
2018-09-04T02:29:58.396Z,94.58
2018-09-04T02:32:27.172Z,95.10
2018-09-04T02:34:56.248Z,94.87
2018-09-04T02:37:24.958Z,95.02
2018-09-04T02:39:54.323Z,95.28
2018-09-04T02:42:23.363Z,95.74
2018-09-04T02:44:52.703Z,96.04
2018-09-04T02:47:22.013Z,95.88
2018-09-04T02:49:50.772Z,96.09
2018-09-04T02:52:19.535Z,96.15
2018-09-04T02:54:48.607Z,95.73
2018-09-04T02:57:17.355Z,95.44
2018-09-04T02:59:46.318Z,96.17
2018-09-04T03:02:18.323Z,95.59
2018-09-04T03:04:47.739Z,95.63
2018-09-04T03:07:17.199Z,95.68
2018-09-04T03:09:45.973Z,95.71
2018-09-04T03:12:14.726Z,96.34
2018-09-04T03:14:43.881Z,96.26
2018-09-04T03:17:13.011Z,96.43
2018-09-04T03:19:41.991Z,96.62
2018-09-04T03:22:11.226Z,96.73
2018-09-04T03:24:40.030Z,96.37
2018-09-04T03:27:08.857Z,96.91
2018-09-04T03:29:37.866Z,96.57
2018-09-04T03:32:07.231Z,97.12
2018-09-04T03:34:36.418Z,97.36
2018-09-04T03:37:05.614Z,97.35
2018-09-04T03:39:35.176Z,97.17
2018-09-04T03:42:03.909Z,96.93
2018-09-04T03:44:33.119Z,97.19
2018-09-04T03:47:01.873Z,97.64
2018-09-04T03:49:30.651Z,97.48
2018-09-04T03:51:59.401Z,98.15
2018-09-04T03:54:28.843Z,98.77
2018-09-04T03:56:57.598Z,98.97
2018-09-04T03:59:26.732Z,99.78
2018-09-04T04:01:55.750Z,99.97
2018-09-04T04:04:24.885Z,99.90
2018-09-04T04:06:53.637Z,99.77
2018-09-04T04:09:23.152Z,100.00
2018-09-04T04:11:51.958Z,100.00
2018-09-04T04:14:21.117Z,100.00
2018-09-04T04:16:50.652Z,100.00
2018-09-04T04:19:19.432Z,100.00
2018-09-04T04:21:48.199Z,100.00
2018-09-04T04:24:16.963Z,100.00
2018-09-04T04:26:46.084Z,100.00
2018-09-04T04:29:15.249Z,100.00
2018-09-04T04:31:44.542Z,100.00
2018-09-04T04:34:13.307Z,100.00
2018-09-04T04:36:42.076Z,100.00
2018-09-04T04:39:11.201Z,100.00
2018-09-04T04:41:39.983Z,100.00
2018-09-04T04:44:09.045Z,100.00
2018-09-04T04:46:38.750Z,100.00
2018-09-04T04:49:08.203Z,100.00
2018-09-04T04:51:37.190Z,100.00
2018-09-04T04:54:06.068Z,100.00
2018-09-04T04:56:35.176Z,100.00
2018-09-04T04:59:03.948Z,100.00
2018-09-04T05:01:33.370Z,100.00
2018-09-04T05:04:02.575Z,100.00
2018-09-04T05:06:32.006Z,100.00
2018-09-04T05:09:01.036Z,100.00
2018-09-04T05:11:29.885Z,100.00
2018-09-04T05:13:58.677Z,100.00
2018-09-04T05:16:27.368Z,100.00
2018-09-04T05:18:56.493Z,100.00
2018-09-04T05:21:25.564Z,100.00
2018-09-04T05:23:54.674Z,100.00
2018-09-04T05:26:23.686Z,100.00
2018-09-04T05:28:52.953Z,100.00
2018-09-04T05:31:21.824Z,100.00
2018-09-04T05:33:51.271Z,100.00
2018-09-04T05:36:20.557Z,100.00
2018-09-04T05:38:49.331Z,100.00
2018-09-04T05:41:18.148Z,100.00
2018-09-04T05:43:50.900Z,100.00
2018-09-04T05:46:29.056Z,100.00
2018-09-04T05:48:58.811Z,100.00
2018-09-04T05:51:27.839Z,100.00
2018-09-04T05:53:56.743Z,100.00
2018-09-04T05:56:25.558Z,100.00
2018-09-04T05:58:54.622Z,100.00
2018-09-04T06:01:23.849Z,100.00
2018-09-04T06:03:52.870Z,100.00
2018-09-04T06:06:22.051Z,100.00
2018-09-04T06:08:51.128Z,100.00
2018-09-04T06:11:19.891Z,100.00
2018-09-04T06:13:48.760Z,100.00
2018-09-04T06:16:17.557Z,100.00
2018-09-04T06:18:46.711Z,100.00
2018-09-04T06:21:16.015Z,100.00
2018-09-04T06:23:44.734Z,100.00
2018-09-04T06:26:13.934Z,100.00
2018-09-04T06:28:42.676Z,100.00
2018-09-04T06:31:12.089Z,100.00
2018-09-04T06:33:41.871Z,100.00
2018-09-04T06:36:10.853Z,100.00
2018-09-04T06:38:39.930Z,100.00
2018-09-04T06:41:08.644Z,100.00
2018-09-04T06:43:38.342Z,100.00
2018-09-04T06:46:07.149Z,100.00
2018-09-04T06:48:36.487Z,100.00
2018-09-04T06:51:05.760Z,100.00
2018-09-04T06:53:34.499Z,100.00
2018-09-04T06:56:03.473Z,100.00
2018-09-04T06:58:32.808Z,100.00
2018-09-04T07:01:01.643Z,100.00
2018-09-04T07:03:30.417Z,100.00
2018-09-04T07:05:59.432Z,99.96
2018-09-04T07:08:28.699Z,99.17
2018-09-04T07:10:57.506Z,98.67
2018-09-04T07:13:26.258Z,98.72
2018-09-04T07:15:58.271Z,97.66
2018-09-04T07:18:27.901Z,96.91
2018-09-04T07:20:56.729Z,95.47
2018-09-04T07:23:25.899Z,96.09
2018-09-04T07:25:54.685Z,95.97
2018-09-04T07:28:23.830Z,94.50
2018-09-04T07:30:52.647Z,94.06
2018-09-04T07:33:21.699Z,94.37
2018-09-04T07:35:51.108Z,93.92
2018-09-04T07:38:19.892Z,94.48
2018-09-04T07:40:48.896Z,93.51
2018-09-04T07:43:18.435Z,92.77
2018-09-04T07:45:47.284Z,91.86
2018-09-04T07:48:16.046Z,91.18
2018-09-04T07:50:45.253Z,91.83
2018-09-04T07:53:15.024Z,91.11
2018-09-04T07:55:43.735Z,90.27
2018-09-04T07:58:12.829Z,90.76
2018-09-04T08:00:41.562Z,89.60
2018-09-04T08:03:10.909Z,88.70
2018-09-04T08:05:39.732Z,88.71
2018-09-04T08:08:08.516Z,87.65
2018-09-04T08:10:37.206Z,86.38
2018-09-04T08:13:07.242Z,87.25
2018-09-04T08:15:36.418Z,86.85
2018-09-04T08:18:05.822Z,86.28
2018-09-04T08:20:34.736Z,84.90
2018-09-04T08:23:03.663Z,83.86
2018-09-04T08:25:32.836Z,84.13
2018-09-04T08:28:01.891Z,82.31
2018-09-04T08:30:31.384Z,82.26
2018-09-04T08:33:00.510Z,80.99
2018-09-04T08:35:29.115Z,81.97
2018-09-04T08:38:00.768Z,81.18
2018-09-04T08:40:31.924Z,80.99
2018-09-04T08:43:00.815Z,79.95
2018-09-04T08:45:30.484Z,80.58
2018-09-04T08:48:02.639Z,77.75
2018-09-04T08:50:33.666Z,78.78
2018-09-04T08:53:03.035Z,78.28
2018-09-04T08:55:32.438Z,78.58
2018-09-04T08:58:01.241Z,77.52
2018-09-04T09:00:30.012Z,76.18
2018-09-04T09:02:58.976Z,76.47
2018-09-04T09:05:27.998Z,75.42
2018-09-04T09:07:56.689Z,75.91
2018-09-04T09:10:25.795Z,74.17
2018-09-04T09:12:54.759Z,74.05
2018-09-04T09:15:23.517Z,73.56
2018-09-04T09:17:52.287Z,73.13
2018-09-04T09:20:21.061Z,71.97
2018-09-04T09:22:49.861Z,71.83
2018-09-04T09:25:18.849Z,70.62
2018-09-04T09:27:47.613Z,70.19
2018-09-04T09:30:17.003Z,69.54
2018-09-04T09:32:45.949Z,68.81
2018-09-04T09:35:15.168Z,67.96
2018-09-04T09:37:43.913Z,67.82
2018-09-04T09:40:12.629Z,67.40
2018-09-04T09:42:41.874Z,67.70
2018-09-04T09:45:11.479Z,65.24
2018-09-04T09:47:45.623Z,63.85
2018-09-04T09:50:14.357Z,66.81
2018-09-04T09:52:43.245Z,65.06
2018-09-04T09:55:12.610Z,62.10
2018-09-04T09:57:42.130Z,62.38
2018-09-04T10:00:19.042Z,63.29
2018-09-04T10:02:51.949Z,59.62
2018-09-04T10:05:21.411Z,60.48
2018-09-04T10:07:50.533Z,60.84
2018-09-04T10:10:19.504Z,59.66
2018-09-04T10:12:48.376Z,59.00
2018-09-04T10:15:17.143Z,59.39
2018-09-04T10:17:46.839Z,58.62
2018-09-04T10:20:15.711Z,57.26
2018-09-04T10:22:44.962Z,57.81
2018-09-04T10:25:13.782Z,58.57
2018-09-04T10:27:42.821Z,56.33
2018-09-04T10:30:14.395Z,55.60
2018-09-04T10:32:53.632Z,56.18
2018-09-04T10:35:23.380Z,56.57
2018-09-04T10:37:52.337Z,53.75
2018-09-04T10:40:26.709Z,53.86
2018-09-04T10:42:55.715Z,52.90
2018-09-04T10:45:29.695Z,53.62
2018-09-04T10:47:58.437Z,51.78
2018-09-04T10:50:27.300Z,52.93
2018-09-04T10:52:56.018Z,51.26
2018-09-04T10:55:25.523Z,51.55
2018-09-04T10:57:54.648Z,50.89
2018-09-04T11:00:23.367Z,50.28
2018-09-04T11:02:52.213Z,51.33
2018-09-04T11:05:22.046Z,49.60
2018-09-04T11:07:51.205Z,49.83
2018-09-04T11:10:20.323Z,48.74
2018-09-04T11:12:49.138Z,49.12
2018-09-04T11:15:18.101Z,48.65
2018-09-04T11:17:46.866Z,47.65
2018-09-04T11:20:16.094Z,46.94
2018-09-04T11:22:44.882Z,46.50
2018-09-04T11:25:13.619Z,46.73
2018-09-04T11:27:42.366Z,46.22
2018-09-04T11:30:13.101Z,45.22
2018-09-04T11:32:42.606Z,44.71
2018-09-04T11:35:11.787Z,45.25
2018-09-04T11:37:40.932Z,44.17
2018-09-04T11:40:10.485Z,45.92
2018-09-04T11:42:39.795Z,43.70
2018-09-04T11:45:09.223Z,43.53
2018-09-04T11:47:41.140Z,43.15
2018-09-04T11:50:10.390Z,42.07
2018-09-04T11:52:39.582Z,42.09
2018-09-04T11:55:09.149Z,42.03
2018-09-04T11:57:38.484Z,42.76
2018-09-04T12:00:09.012Z,42.55
2018-09-04T12:02:39.263Z,42.78
2018-09-04T12:05:08.017Z,40.26
2018-09-04T12:07:37.233Z,40.71
2018-09-04T12:10:07.289Z,39.65
2018-09-04T12:12:36.503Z,40.15
2018-09-04T12:15:05.165Z,40.11
2018-09-04T12:17:33.871Z,39.38
2018-09-04T12:20:10.121Z,38.14
2018-09-04T12:22:39.617Z,38.90
2018-09-04T12:25:08.473Z,37.90
2018-09-04T12:27:37.252Z,39.33
2018-09-04T12:30:06.595Z,38.82
2018-09-04T12:32:35.351Z,39.53
2018-09-04T12:35:04.086Z,39.91
2018-09-04T12:37:32.803Z,39.20
2018-09-04T12:40:01.553Z,39.87
2018-09-04T12:42:30.381Z,40.79
2018-09-04T12:45:00.620Z,40.85
2018-09-04T12:47:29.462Z,39.13
2018-09-04T12:49:58.209Z,39.52
2018-09-04T12:52:26.959Z,39.67
2018-09-04T12:54:55.867Z,39.92
2018-09-04T12:57:24.662Z,38.04
2018-09-04T12:59:54.062Z,38.62
2018-09-04T13:02:22.810Z,38.82
2018-09-04T13:04:51.601Z,37.97
2018-09-04T13:07:20.850Z,38.20
2018-09-04T13:09:49.882Z,39.23
2018-09-04T13:12:18.727Z,40.73
2018-09-04T13:14:47.563Z,40.42
2018-09-04T13:17:16.339Z,41.62
2018-09-04T13:19:45.413Z,42.33
2018-09-04T13:22:14.282Z,42.00
2018-09-04T13:24:43.707Z,42.86
2018-09-04T13:27:12.796Z,41.67
2018-09-04T13:29:41.549Z,40.09
2018-09-04T13:32:10.619Z,39.77
2018-09-04T13:34:39.325Z,39.93
2018-09-04T13:37:09.202Z,38.50
2018-09-04T13:39:38.535Z,38.47
2018-09-04T13:42:08.002Z,39.74
2018-09-04T13:44:37.239Z,39.46
2018-09-04T13:47:06.349Z,38.57
2018-09-04T13:49:35.255Z,37.64
2018-09-04T13:52:04.344Z,37.81
2018-09-04T13:54:33.407Z,37.30
2018-09-04T13:57:02.107Z,37.37
2018-09-04T13:59:31.131Z,36.93
2018-09-04T14:01:59.930Z,35.37
2018-09-04T14:04:29.236Z,33.38
2018-09-04T14:06:58.706Z,33.38
2018-09-04T14:09:27.761Z,34.63
2018-09-04T14:11:56.901Z,36.08
2018-09-04T14:14:26.223Z,35.26
2018-09-04T14:16:55.050Z,35.44
2018-09-04T14:19:23.854Z,35.70
2018-09-04T14:21:53.065Z,36.47
2018-09-04T14:24:22.179Z,35.69
2018-09-04T14:26:51.586Z,36.71
2018-09-04T14:29:53.162Z,37.34
2018-09-04T14:31:49.635Z,36.98
2018-09-04T14:34:18.367Z,37.44
2018-09-04T14:36:48.005Z,36.07
2018-09-04T14:39:16.579Z,36.57
2018-09-04T14:41:45.919Z,37.25
2018-09-04T14:44:14.687Z,36.77
2018-09-04T14:46:44.610Z,37.64
2018-09-04T14:49:13.485Z,37.07
2018-09-04T14:51:42.565Z,37.92
2018-09-04T14:54:11.871Z,37.24
2018-09-04T14:56:41.945Z,37.66
2018-09-04T14:59:10.830Z,37.04
2018-09-04T15:01:40.042Z,36.84
2018-09-04T15:04:08.751Z,36.35
2018-09-04T15:06:38.624Z,37.29
2018-09-04T15:09:07.639Z,38.12
2018-09-04T15:11:36.390Z,37.34
2018-09-04T15:14:05.389Z,38.71
2018-09-04T15:16:35.164Z,39.67
2018-09-04T15:19:04.212Z,39.43
2018-09-04T15:21:33.262Z,38.82
2018-09-04T15:24:02.799Z,38.51
2018-09-04T15:26:31.587Z,38.09
2018-09-04T15:29:00.323Z,38.65
2018-09-04T15:31:29.566Z,39.08
2018-09-04T15:33:58.305Z,39.46
2018-09-04T15:36:27.058Z,40.18
2018-09-04T15:38:56.699Z,40.53
2018-09-04T15:41:25.993Z,41.46
2018-09-04T15:43:54.863Z,41.76
2018-09-04T15:46:23.624Z,42.30
2018-09-04T15:48:58.203Z,42.64
2018-09-04T15:51:27.278Z,42.82
2018-09-04T15:53:56.259Z,43.23
2018-09-04T15:56:25.077Z,43.36
2018-09-04T15:58:54.086Z,44.35
2018-09-04T16:01:22.892Z,43.97
2018-09-04T16:03:52.238Z,44.26
2018-09-04T16:06:21.737Z,44.50
2018-09-04T16:08:50.488Z,45.15
2018-09-04T16:11:19.527Z,45.09
2018-09-04T16:13:48.514Z,45.27
2018-09-04T16:16:17.283Z,45.45
2018-09-04T16:18:46.354Z,45.18
2018-09-04T16:21:15.410Z,45.53
2018-09-04T16:23:44.113Z,46.31
2018-09-04T16:26:12.985Z,46.65
2018-09-04T16:28:41.700Z,45.95
2018-09-04T16:31:11.166Z,46.57
2018-09-04T16:33:40.000Z,47.08
2018-09-04T16:36:09.056Z,47.20
2018-09-04T16:38:38.809Z,47.05
2018-09-04T16:41:07.793Z,47.43
2018-09-04T16:43:37.053Z,47.75
2018-09-04T16:46:05.841Z,48.23
2018-09-04T16:48:34.634Z,48.31
2018-09-04T16:51:05.174Z,48.88
2018-09-04T16:53:34.144Z,49.74
2018-09-04T16:56:03.334Z,49.80
2018-09-04T16:58:33.087Z,50.49
2018-09-04T17:01:02.274Z,50.85
2018-09-04T17:03:31.777Z,51.34
2018-09-04T17:06:00.721Z,51.23
2018-09-04T17:08:29.459Z,51.96
2018-09-04T17:10:58.498Z,52.09
2018-09-04T17:13:27.258Z,51.79
2018-09-04T17:15:56.223Z,52.74
2018-09-04T17:18:25.001Z,52.89
2018-09-04T17:20:54.223Z,53.19
2018-09-04T17:23:23.733Z,53.66
2018-09-04T17:25:52.877Z,53.70
2018-09-04T17:28:21.908Z,53.95
2018-09-04T17:30:50.619Z,53.86
2018-09-04T17:33:19.518Z,54.73
2018-09-04T17:35:48.232Z,54.47
2018-09-04T17:38:17.516Z,55.20
2018-09-04T17:40:46.587Z,55.14
2018-09-04T17:43:15.881Z,56.05
2018-09-04T17:45:45.269Z,56.27
2018-09-04T17:48:14.073Z,56.73
2018-09-04T17:50:43.382Z,57.23
2018-09-04T17:53:12.450Z,57.72
2018-09-04T17:55:41.562Z,58.88
2018-09-04T17:58:10.773Z,58.43
2018-09-04T18:00:42.546Z,58.67
2018-09-04T18:03:11.337Z,59.56
2018-09-04T18:05:40.639Z,60.15
2018-09-04T18:08:09.950Z,60.47
2018-09-04T18:10:38.992Z,60.86
2018-09-04T18:13:07.752Z,61.46
2018-09-04T18:15:36.532Z,60.65
2018-09-04T18:18:06.187Z,61.35
2018-09-04T18:20:34.980Z,61.94
2018-09-04T18:23:03.708Z,62.22
2018-09-04T18:25:32.826Z,62.79
2018-09-04T18:28:01.900Z,62.18
2018-09-04T18:30:31.030Z,62.88
2018-09-04T18:33:00.053Z,62.71
2018-09-04T18:35:28.813Z,63.81
2018-09-04T18:37:57.730Z,63.66
2018-09-04T18:40:26.465Z,63.41
2018-09-04T18:42:55.265Z,63.41
2018-09-04T18:45:35.466Z,64.24
2018-09-04T18:48:05.110Z,64.54
2018-09-04T18:50:34.115Z,64.69
2018-09-04T18:53:03.138Z,64.88
2018-09-04T18:55:32.274Z,64.85
2018-09-04T18:58:01.447Z,64.95
2018-09-04T19:00:30.293Z,65.37
2018-09-04T19:02:59.634Z,64.90
2018-09-04T19:05:28.758Z,64.94
2018-09-04T19:07:58.526Z,65.76
2018-09-04T19:10:27.806Z,65.65
2018-09-04T19:12:57.071Z,66.33
2018-09-04T19:15:26.320Z,67.21
2018-09-04T19:17:55.631Z,67.51
2018-09-04T19:20:24.866Z,67.93
2018-09-04T19:22:54.744Z,67.61
2018-09-04T19:25:24.581Z,68.59
2018-09-04T19:27:53.714Z,68.33
2018-09-04T19:30:23.007Z,69.01
2018-09-04T19:32:52.105Z,69.18
2018-09-04T19:35:21.228Z,69.17
2018-09-04T19:37:50.130Z,68.75
2018-09-04T19:40:19.401Z,69.43
2018-09-04T19:42:48.179Z,69.61
2018-09-04T19:45:17.005Z,69.33
2018-09-04T19:47:45.813Z,69.20
2018-09-04T19:50:14.594Z,69.44
2018-09-04T19:52:43.404Z,70.02
2018-09-04T19:55:13.724Z,69.52
2018-09-04T19:57:42.464Z,70.00
2018-09-04T20:00:11.600Z,69.38
2018-09-04T20:02:40.482Z,69.87
2018-09-04T20:05:09.860Z,69.23
2018-09-04T20:07:39.260Z,68.99
2018-09-04T20:10:08.076Z,69.18
2018-09-04T20:12:37.093Z,69.13
2018-09-04T20:15:06.231Z,69.13
2018-09-04T20:17:35.289Z,70.06
2018-09-04T20:20:04.285Z,70.35
2018-09-04T20:22:33.031Z,70.32
2018-09-04T20:25:02.076Z,70.65
2018-09-04T20:27:31.093Z,70.86
2018-09-04T20:30:00.145Z,70.82
2018-09-04T20:32:35.680Z,70.84
2018-09-04T20:35:04.770Z,71.28
2018-09-04T20:37:34.248Z,71.78
2018-09-04T20:40:03.262Z,71.98
2018-09-04T20:42:32.020Z,72.74
2018-09-04T20:45:00.795Z,72.69
2018-09-04T20:47:29.653Z,73.54
2018-09-04T20:49:58.388Z,73.89
2018-09-04T20:52:27.668Z,74.11
2018-09-04T20:54:56.927Z,74.36
2018-09-04T20:57:35.565Z,74.75
2018-09-04T21:00:17.277Z,75.70
2018-09-04T21:02:57.028Z,75.34
2018-09-04T21:05:36.969Z,75.79
2018-09-04T21:08:18.111Z,77.02
2018-09-04T21:10:48.234Z,77.10
2018-09-04T21:13:17.562Z,77.17
2018-09-04T21:15:46.593Z,78.50
2018-09-04T21:18:15.295Z,78.11
2018-09-04T21:20:44.078Z,78.14
2018-09-04T21:23:13.417Z,78.42
2018-09-04T21:25:42.159Z,79.18
2018-09-04T21:28:10.944Z,79.92
2018-09-04T21:30:40.115Z,80.27
2018-09-04T21:33:09.268Z,80.33
2018-09-04T21:35:38.298Z,80.81
2018-09-04T21:38:07.129Z,80.70
2018-09-04T21:40:36.565Z,81.08
2018-09-04T21:43:05.695Z,81.75
2018-09-04T21:45:34.879Z,81.53
2018-09-04T21:48:03.679Z,81.72
2018-09-04T21:50:32.984Z,82.54
2018-09-04T21:53:02.097Z,83.17
2018-09-04T21:55:31.161Z,83.27
2018-09-04T21:58:00.236Z,83.81
2018-09-04T22:00:29.420Z,83.95
2018-09-04T22:02:58.915Z,84.04
2018-09-04T22:05:28.106Z,83.97
2018-09-04T22:07:57.926Z,84.51
2018-09-04T22:10:28.091Z,84.74
2018-09-04T22:12:57.503Z,85.01
2018-09-04T22:15:26.773Z,85.11
2018-09-04T22:17:56.466Z,84.98
2018-09-04T22:20:25.604Z,85.31
2018-09-04T22:22:54.573Z,85.98
2018-09-04T22:25:24.409Z,85.40
2018-09-04T22:27:53.495Z,86.16
2018-09-04T22:30:25.057Z,86.17
2018-09-04T22:32:53.878Z,86.40
2018-09-04T22:35:23.233Z,86.63
2018-09-04T22:37:51.968Z,86.33
2018-09-04T22:40:27.265Z,86.69
2018-09-04T22:42:56.022Z,87.03
2018-09-04T22:45:24.835Z,88.27
2018-09-04T22:47:54.229Z,88.67
2018-09-04T22:50:28.971Z,89.18
2018-09-04T22:52:57.737Z,89.57
2018-09-04T22:55:26.813Z,89.76
2018-09-04T22:57:55.632Z,90.58
2018-09-04T23:00:24.870Z,90.90
2018-09-04T23:02:54.469Z,90.54
2018-09-04T23:05:23.566Z,90.79
2018-09-04T23:07:52.604Z,90.76
2018-09-04T23:10:21.624Z,90.49
2018-09-04T23:12:51.159Z,90.69
2018-09-04T23:15:19.993Z,90.71
2018-09-04T23:17:48.725Z,91.48
2018-09-04T23:20:17.728Z,91.44
2018-09-04T23:22:47.056Z,91.32
2018-09-04T23:25:16.033Z,91.42
2018-09-04T23:27:45.411Z,92.25
2018-09-04T23:30:14.516Z,92.67
2018-09-04T23:32:44.838Z,92.75
2018-09-04T23:35:14.404Z,92.51
2018-09-04T23:37:44.042Z,93.73
2018-09-04T23:40:13.130Z,94.09
2018-09-04T23:42:42.510Z,94.38
2018-09-04T23:45:13.927Z,93.90
2018-09-04T23:47:43.732Z,94.45
2018-09-04T23:50:12.585Z,93.88
2018-09-04T23:52:41.561Z,93.97
2018-09-04T23:55:10.417Z,94.60
2018-09-04T23:57:39.911Z,94.46
